.
WxDataArchive / Data Records for 2008-03-06
2008-03-05 March 2008 2008-03-07

Data Records for Thursday, 06 March 2008

Time	Temp	Chill	HIndex	Humid	Dewpt	 Wind 	HiWind	WindDir	Rain 	Barom 
-----	----	-----	------	-----	-----	------	------	-------	-----	----- 
00:00	29.3	29.3	29.3	81	24.2	1	3	270	0.00	30.014 
00:05	29.4	29.4	29.4	81	24.3	1	3	248	0.00	30.015 
00:10	29.4	29.4	29.4	81	24.3	1	4	225	0.00	30.016 
00:15	29.4	29.4	29.4	81	24.3	1	3	225	0.00	30.018 
00:20	29.5	29.5	29.5	81	24.4	1	3	225	0.00	30.016 
00:25	29.5	29.5	29.5	81	24.4	1	2	225	0.00	30.016 
00:30	29.5	29.5	29.5	81	24.4	1	4	248	0.00	30.016 
00:35	29.5	29.5	29.5	81	24.4	1	3	248	0.00	30.016 
00:40	29.5	29.5	29.5	81	24.4	1	3	248	0.00	30.015 
00:45	29.7	29.7	29.7	81	24.6	1	3	248	0.00	30.014 
00:50	29.7	29.7	29.7	81	24.6	0	2	248	0.00	30.012 
00:55	29.7	29.7	29.7	81	24.6	0	2	248	0.00	30.013 
01:00	29.5	29.5	29.5	81	24.4	0	3	248	0.00	30.013 
01:05	29.5	29.5	29.5	81	24.4	0	2	225	0.00	30.010 
01:10	29.5	29.5	29.5	81	24.4	0	3	225	0.00	30.009 
01:15	29.4	29.4	29.4	81	24.3	0	2	248	0.00	30.010 
01:20	29.4	29.4	29.4	81	24.3	0	2	248	0.00	30.009 
01:25	29.1	29.1	29.1	81	24.0	0	1	248	0.00	30.006 
01:30	29.0	29.0	29.0	81	23.9	0	3	248	0.00	30.004 
01:35	28.8	28.8	28.8	82	24.0	0	3	248	0.00	30.006 
01:40	28.8	28.8	28.8	82	24.0	0	1	248	0.00	30.006 
01:45	28.8	28.8	28.8	82	24.0	0	2	248	0.00	30.006 
01:50	28.7	28.7	28.7	83	24.2	0	1	248	0.00	30.008 
01:55	28.7	28.7	28.7	83	24.2	0	2	248	0.00	30.008 
02:00	28.7	28.7	28.7	83	24.2	0	1	248	0.00	30.005 
02:05	28.5	28.5	28.5	84	24.3	0	0	---	0.00	30.003 
02:10	28.5	28.5	28.5	84	24.3	0	1	248	0.00	30.001 
02:15	28.5	28.5	28.5	84	24.3	0	1	248	0.00	30.000 
02:20	28.5	28.5	28.5	84	24.3	0	3	248	0.00	29.999 
02:25	28.5	28.5	28.5	84	24.3	0	2	248	0.00	29.999 
02:30	28.7	28.7	28.7	84	24.5	0	2	248	0.00	29.997 
02:35	28.7	28.7	28.7	84	24.5	0	1	248	0.00	29.997 
02:40	28.7	28.7	28.7	84	24.5	0	2	248	0.00	29.996 
02:45	28.7	28.7	28.7	84	24.5	0	1	248	0.00	29.994 
02:50	28.7	28.7	28.7	84	24.5	0	1	248	0.00	29.988 
02:55	28.7	28.7	28.7	85	24.8	0	1	248	0.00	29.989 
03:00	28.7	28.7	28.7	85	24.8	0	1	248	0.00	29.987 
03:05	28.7	28.7	28.7	85	24.8	0	2	248	0.00	29.988 
03:10	28.7	28.7	28.7	85	24.8	0	1	248	0.00	29.987 
03:15	28.5	28.5	28.5	85	24.6	0	1	248	0.00	29.991 
03:20	28.5	28.5	28.5	85	24.6	0	2	248	0.00	29.995 
03:25	28.5	28.5	28.5	85	24.6	0	1	248	0.00	29.995 
03:30	28.7	28.7	28.7	85	24.8	0	1	248	0.00	29.994 
03:35	28.5	28.5	28.5	85	24.6	0	1	248	0.00	29.991 
03:40	28.5	28.5	28.5	85	24.6	0	1	248	0.00	29.991 
03:45	28.5	28.5	28.5	85	24.6	0	1	248	0.00	29.990 
03:50	28.5	28.5	28.5	86	24.9	0	1	248	0.00	29.993 
03:55	28.7	28.7	28.7	86	25.1	0	2	248	0.00	29.995 
04:00	28.7	28.7	28.7	86	25.1	0	1	248	0.00	29.996 
04:05	28.8	28.8	28.8	86	25.2	0	2	248	0.00	29.993 
04:10	28.8	28.8	28.8	86	25.2	0	1	248	0.00	29.997 
04:15	28.8	28.8	28.8	86	25.2	0	1	248	0.00	29.996 
04:20	28.8	28.8	28.8	86	25.2	0	2	248	0.00	29.996 
04:25	29.0	29.0	29.0	86	25.3	0	2	248	0.00	29.994 
04:30	29.0	29.0	29.0	86	25.3	0	1	248	0.00	29.993 
04:35	29.0	29.0	29.0	86	25.3	0	1	248	0.00	29.989 
04:40	28.8	28.8	28.8	86	25.2	0	0	---	0.00	29.990 
04:45	28.8	28.8	28.8	86	25.2	0	1	248	0.00	29.992 
04:50	28.8	28.8	28.8	86	25.2	0	1	248	0.00	29.992 
04:55	28.8	28.8	28.8	87	25.4	0	1	248	0.00	29.997 
05:00	28.8	28.8	28.8	87	25.4	0	1	248	0.00	30.001 
05:05	28.8	28.8	28.8	87	25.4	0	1	248	0.00	30.000 
05:10	28.8	28.8	28.8	87	25.4	0	2	248	0.00	29.998 
05:15	28.8	28.8	28.8	87	25.4	0	0	---	0.00	29.998 
05:20	28.8	28.8	28.8	87	25.4	0	1	248	0.00	29.999 
05:25	28.8	28.8	28.8	87	25.4	0	0	---	0.00	30.001 
05:30	28.8	28.8	28.8	87	25.4	0	1	248	0.00	30.001 
05:35	28.8	28.8	28.8	87	25.4	0	1	248	0.00	30.000 
05:40	28.8	28.8	28.8	87	25.4	0	1	248	0.00	30.001 
05:45	28.8	28.8	28.8	87	25.4	0	1	248	0.00	30.000 
05:50	28.8	28.8	28.8	87	25.4	0	1	248	0.00	30.001 
05:55	28.8	28.8	28.8	88	25.7	0	2	248	0.00	30.001 
06:00	28.8	28.8	28.8	88	25.7	0	1	248	0.00	30.003 
06:05	28.8	28.8	28.8	88	25.7	0	0	---	0.00	30.005 
06:10	28.8	28.8	28.8	88	25.7	0	1	248	0.00	30.004 
06:15	29.0	29.0	29.0	88	25.9	0	1	248	0.00	30.004 
06:20	29.0	29.0	29.0	88	25.9	0	1	248	0.00	30.002 
06:25	29.0	29.0	29.0	88	25.9	0	2	248	0.00	30.003 
06:30	29.1	29.1	29.1	88	26.0	0	2	248	0.00	30.003 
06:35	29.1	29.1	29.1	88	26.0	0	1	248	0.00	30.003 
06:40	29.3	29.3	29.3	88	26.2	0	1	248	0.00	30.006 
06:45	29.3	29.3	29.3	88	26.2	0	1	248	0.00	30.008 
06:50	29.4	29.4	29.4	88	26.3	0	2	248	0.00	30.012 
06:55	29.4	29.4	29.4	88	26.3	0	2	248	0.00	30.012 
07:00	29.5	29.5	29.5	88	26.4	0	1	248	0.00	30.004 
07:05	29.5	29.5	29.5	88	26.4	0	1	248	0.00	30.013 
07:10	29.7	29.7	29.7	88	26.6	0	1	248	0.00	30.011 
07:15	29.8	29.8	29.8	88	26.7	0	2	248	0.00	30.014 
07:20	29.8	29.8	29.8	88	26.7	0	1	248	0.00	30.015 
07:25	30.0	30.0	30.0	88	26.9	0	1	248	0.00	30.016 
07:30	30.0	30.0	30.0	88	26.9	0	1	248	0.00	30.016 
07:35	30.1	30.1	30.1	88	27.0	0	2	248	0.00	30.017 
07:40	30.1	30.1	30.1	88	27.0	0	2	248	0.00	30.018 
07:45	30.3	30.3	30.3	88	27.2	1	3	248	0.00	30.019 
07:50	30.6	30.6	30.6	88	27.5	0	2	248	0.00	30.024 
07:55	30.7	30.7	30.7	88	27.6	1	4	248	0.00	30.030 
08:00	31.0	31.0	31.0	88	27.9	2	5	248	0.00	30.031 
08:05	31.3	31.3	31.3	88	28.2	1	5	248	0.00	30.032 
08:10	31.5	31.5	31.5	87	28.1	2	4	248	0.00	30.033 
08:15	31.8	31.8	31.8	87	28.4	2	5	248	0.00	30.036 
08:20	31.9	31.9	31.9	86	28.2	1	5	248	0.00	30.037 
08:25	32.2	32.2	32.2	86	28.5	2	5	248	0.00	30.039 
08:30	32.4	32.4	32.4	86	28.7	2	6	248	0.00	30.042 
08:35	32.5	32.5	32.5	85	28.5	3	6	248	0.00	30.038 
08:40	32.7	32.7	32.7	85	28.7	3	10	248	0.00	30.040 
08:45	32.8	32.8	32.8	85	28.8	2	6	248	0.00	30.044 
08:50	32.9	32.9	32.9	85	28.9	1	4	248	0.00	30.044 
08:55	33.1	33.1	33.1	84	28.8	1	4	248	0.00	30.044 
09:00	33.2	33.2	33.2	84	28.9	2	4	248	0.00	30.044 
09:05	33.4	33.4	33.4	84	29.1	2	6	248	0.00	30.048 
09:10	33.7	33.7	33.7	84	29.4	1	2	248	0.00	30.046 
09:15	33.8	33.8	33.8	84	29.5	1	3	248	0.00	30.046 
09:20	33.8	33.8	33.8	83	29.2	2	6	248	0.00	30.048 
09:25	33.8	33.8	33.8	84	29.5	2	6	248	0.00	30.049 
09:30	34.0	34.0	34.0	84	29.7	1	3	248	0.00	30.051 
09:35	34.1	34.1	34.1	83	29.5	2	5	248	0.00	30.054 
09:40	34.1	34.1	34.1	83	29.5	2	6	248	0.00	30.057 
09:45	34.1	34.1	34.1	82	29.2	2	6	248	0.00	30.060 
09:50	34.1	34.1	34.1	83	29.5	2	6	248	0.00	30.063 
09:55	34.1	34.1	34.1	83	29.5	2	5	248	0.00	30.065 
10:00	34.0	34.0	34.0	83	29.4	2	4	248	0.00	30.073 
10:05	34.0	34.0	34.0	83	29.4	2	5	270	0.00	30.076 
10:10	34.0	34.0	34.0	83	29.4	1	4	248	0.00	30.076 
10:15	34.0	34.0	34.0	82	29.1	1	4	248	0.00	30.078 
10:20	34.1	34.1	34.1	82	29.2	1	4	248	0.00	30.078 
10:25	34.3	34.3	34.3	81	29.1	2	7	270	0.00	30.082 
10:30	34.4	34.4	34.4	81	29.2	1	4	248	0.00	30.086 
10:35	34.7	34.7	34.7	81	29.5	1	3	248	0.00	30.083 
10:40	34.7	34.7	34.7	80	29.2	2	5	248	0.00	30.088 
10:45	34.9	34.9	34.9	80	29.4	2	4	270	0.00	30.089 
10:50	34.7	34.7	34.7	80	29.2	2	6	248	0.00	30.089 
10:55	34.9	34.9	34.9	80	29.4	2	4	270	0.00	30.087 
11:00	35.2	35.2	35.2	79	29.4	1	5	248	0.00	30.088 
11:05	35.6	35.6	35.6	79	29.7	1	5	248	0.00	30.090 
11:10	35.9	35.9	35.9	77	29.4	1	3	270	0.00	30.091 
11:15	35.9	35.9	35.9	77	29.4	1	3	248	0.01	30.092 
11:20	35.8	35.8	35.8	76	29.0	2	4	270	0.00	30.093 
11:25	35.8	35.8	35.8	77	29.3	1	4	225	0.00	30.094 
11:30	35.6	35.6	35.6	77	29.1	1	3	270	0.00	30.097 
11:35	35.5	35.5	35.5	77	29.0	2	6	270	0.01	30.099 
11:40	35.5	35.5	35.5	77	29.0	1	4	270	0.00	30.102 
11:45	35.3	35.3	35.3	77	28.8	2	4	248	0.00	30.104 
11:50	35.2	35.2	35.2	78	29.0	1	2	270	0.01	30.105 
11:55	35.0	35.0	35.0	78	28.8	1	4	315	0.00	30.106 
12:00	34.7	34.7	34.7	79	28.9	1	4	315	0.00	30.107 
12:05	34.6	34.6	34.6	78	28.5	2	5	292	0.00	30.108 
12:10	34.7	34.7	34.7	77	28.2	2	5	270	0.01	30.107 
12:15	34.7	34.7	34.7	75	27.6	2	5	270	0.00	30.110 
12:20	34.7	34.7	34.7	76	27.9	1	6	270	0.00	30.110 
12:25	34.9	34.9	34.9	75	27.8	2	6	292	0.00	30.108 
12:30	35.0	35.0	35.0	75	27.9	1	4	292	0.00	30.109 
12:35	35.5	35.5	35.5	72	27.4	1	4	270	0.01	30.108 
12:40	35.8	35.8	35.8	71	27.3	1	4	270	0.00	30.107 
12:45	35.6	35.6	35.6	70	26.8	2	5	315	0.00	30.106 
12:50	35.8	35.8	35.8	70	27.0	1	4	315	0.01	30.106 
12:55	36.0	36.0	36.0	70	27.2	2	7	315	0.00	30.105 
13:00	36.2	36.2	36.2	69	27.0	1	2	292	0.01	30.106 
13:05	36.5	36.5	36.5	68	27.0	2	4	248	0.00	30.106 
13:10	36.8	36.8	36.8	67	26.9	1	3	270	0.00	30.107 
13:15	36.9	36.9	36.9	66	26.6	2	4	248	0.01	30.107 
13:20	36.8	36.8	36.8	64	25.8	2	7	270	0.00	30.107 
13:25	36.6	36.6	36.6	64	25.6	2	5	270	0.01	30.110 
13:30	36.3	36.3	36.3	64	25.3	2	4	270	0.00	30.111 
13:35	36.0	36.0	36.0	65	25.4	2	7	292	0.00	30.117 
13:40	36.0	36.0	36.0	65	25.4	2	4	270	0.01	30.115 
13:45	36.2	36.2	36.2	64	25.2	2	5	292	0.00	30.114 
13:50	36.2	36.2	36.2	63	24.8	2	4	270	0.00	30.114 
13:55	36.3	36.3	36.3	62	24.5	3	7	270	0.01	30.113 
14:00	36.8	36.8	36.8	62	25.0	2	4	270	0.00	30.112 
14:05	37.0	37.0	37.0	61	24.8	2	6	270	0.01	30.113 
14:10	36.9	36.9	36.9	61	24.7	2	9	248	0.00	30.115 
14:15	36.8	36.8	36.8	61	24.6	2	7	248	0.00	30.119 
14:20	37.3	37.3	37.3	61	25.1	2	5	270	0.01	30.119 
14:25	37.6	37.6	37.6	58	24.2	2	6	270	0.00	30.119 
14:30	37.5	37.5	37.5	57	23.7	2	6	292	0.01	30.121 
14:35	36.8	36.8	36.8	58	23.4	1	2	270	0.00	30.122 
14:40	36.5	36.5	36.5	59	23.6	1	3	338	0.00	30.123 
14:45	36.2	36.2	36.2	58	22.9	2	7	270	0.01	30.125 
14:50	36.0	36.0	36.0	58	22.7	1	4	270	0.00	30.124 
14:55	36.0	36.0	36.0	59	23.1	1	4	292	0.00	30.124 
15:00	36.9	36.9	36.9	58	23.5	2	6	292	0.00	30.121 
15:05	37.0	37.0	37.0	57	23.2	2	6	248	0.01	30.122 
15:10	36.8	36.8	36.8	58	23.4	1	4	248	0.00	30.122 
15:15	36.6	36.6	36.6	58	23.2	1	5	248	0.00	30.123 
15:20	36.2	36.2	36.2	57	22.5	1	2	248	0.00	30.126 
15:25	35.9	35.9	35.9	58	22.6	1	5	270	0.00	30.127 
15:30	36.0	36.0	36.0	58	22.7	1	5	270	0.01	30.127 
15:35	35.9	35.9	35.9	58	22.6	1	2	338	0.00	30.126 
15:40	36.0	36.0	36.0	58	22.7	0	2	270	0.00	30.125 
15:45	36.6	36.6	36.6	57	22.8	1	4	248	0.00	30.124 
15:50	37.2	37.2	37.2	57	23.4	2	5	248	0.00	30.124 
15:55	37.5	37.5	37.5	55	22.8	1	3	292	0.01	30.124 
16:00	37.3	37.3	37.3	55	22.6	1	3	270	0.00	30.128 
16:05	37.0	37.0	37.0	56	22.8	1	4	270	0.00	30.130 
16:10	36.2	36.2	36.2	57	22.5	1	2	248	0.01	30.130 
16:15	35.8	35.8	35.8	58	22.5	1	4	270	0.00	30.127 
16:20	35.5	35.5	35.5	57	21.8	1	3	338	0.00	30.126 
16:25	35.5	35.5	35.5	57	21.8	1	3	0	0.00	30.125 
16:30	35.9	35.9	35.9	57	22.2	1	3	270	0.00	30.125 
16:35	35.9	35.9	35.9	56	21.8	1	4	270	0.00	30.125 
16:40	35.8	35.8	35.8	58	22.5	1	4	270	0.00	30.125 
16:45	35.8	35.8	35.8	56	21.7	1	4	338	0.00	30.123 
16:50	35.8	35.8	35.8	58	22.5	1	4	292	0.00	30.123 
16:55	35.5	35.5	35.5	58	22.2	1	3	315	0.00	30.119 
17:00	35.6	35.6	35.6	58	22.3	1	5	292	0.00	30.118 
17:05	35.5	35.5	35.5	59	22.6	1	3	270	0.00	30.116 
17:10	35.2	35.2	35.2	58	21.9	1	4	270	0.00	30.117 
17:15	34.9	34.9	34.9	59	22.0	1	3	0	0.00	30.119 
17:20	34.4	34.4	34.4	61	22.4	1	3	315	0.00	30.121 
17:25	34.0	34.0	34.0	62	22.4	1	4	315	0.00	30.122 
17:30	33.5	33.5	33.5	62	21.9	1	4	248	0.00	30.125 
17:35	33.4	33.4	33.4	63	22.2	0	3	270	0.00	30.125 
17:40	33.2	33.2	33.2	63	22.0	0	2	292	0.00	30.125 
17:45	33.1	33.1	33.1	63	21.9	1	3	270	0.00	30.126 
17:50	32.9	32.9	32.9	64	22.1	0	2	270	0.00	30.126 
17:55	32.8	32.8	32.8	64	22.0	0	1	270	0.00	30.125 
18:00	32.7	32.7	32.7	64	21.9	0	1	270	0.00	30.124 
18:05	32.5	32.5	32.5	64	21.7	0	1	270	0.00	30.124 
18:10	32.5	32.5	32.5	63	21.3	0	1	270	0.00	30.124 
18:15	32.4	32.4	32.4	63	21.2	0	1	270	0.00	30.126 
18:20	32.1	32.1	32.1	63	20.9	0	1	270	0.01	30.129 
18:25	31.9	31.9	31.9	63	20.8	0	1	270	0.00	30.136 
18:30	31.8	31.8	31.8	63	20.7	0	1	270	0.00	30.135 
18:35	31.6	31.6	31.6	64	20.8	0	1	270	0.00	30.137 
18:40	31.5	31.5	31.5	65	21.1	0	0	---	0.00	30.137 
18:45	31.3	31.3	31.3	65	20.9	0	0	---	0.00	30.141 
18:50	31.0	31.0	31.0	65	20.6	0	0	---	0.00	30.142 
18:55	30.9	30.9	30.9	66	20.9	0	0	---	0.00	30.144 
19:00	30.7	30.7	30.7	67	21.1	0	0	---	0.00	30.144 
19:05	30.6	30.6	30.6	67	21.0	0	0	---	0.00	30.144 
19:10	30.4	30.4	30.4	67	20.8	0	0	---	0.00	30.150 
19:15	30.4	30.4	30.4	67	20.8	0	0	---	0.00	30.154 
19:20	30.3	30.3	30.3	67	20.7	0	0	---	0.00	30.156 
19:25	30.1	30.1	30.1	67	20.5	0	0	---	0.00	30.156 
19:30	30.1	30.1	30.1	67	20.5	0	0	---	0.00	30.159 
19:35	30.0	30.0	30.0	67	20.4	0	0	---	0.00	30.158 
19:40	30.0	30.0	30.0	67	20.4	0	0	---	0.00	30.155 
19:45	30.0	30.0	30.0	68	20.7	0	0	---	0.00	30.155 
19:50	29.7	29.7	29.7	67	20.1	0	0	---	0.00	30.158 
19:55	29.5	29.5	29.5	68	20.3	0	0	---	0.00	30.156 
20:00	29.3	29.3	29.3	69	20.4	0	0	---	0.00	30.152 
20:05	29.0	29.0	29.0	70	20.5	0	0	---	0.00	30.153 
20:10	28.7	28.7	28.7	71	20.5	0	0	---	0.00	30.156 
20:15	28.4	28.4	28.4	71	20.2	0	0	---	0.00	30.156 
20:20	28.2	28.2	28.2	72	20.4	0	0	---	0.00	30.159 
20:25	28.1	28.1	28.1	73	20.6	0	0	---	0.00	30.160 
20:30	27.9	27.9	27.9	74	20.7	0	0	---	0.00	30.159 
20:35	27.8	27.8	27.8	74	20.6	0	0	---	0.00	30.160 
20:40	27.5	27.5	27.5	75	20.6	0	0	---	0.00	30.160 
20:45	27.3	27.3	27.3	76	20.8	0	0	---	0.00	30.161 
20:50	27.3	27.3	27.3	76	20.8	0	0	---	0.00	30.160 
20:55	27.2	27.2	27.2	76	20.7	0	0	---	0.00	30.163 
21:00	27.2	27.2	27.2	77	21.0	0	0	---	0.00	30.168 
21:05	27.0	27.0	27.0	77	20.8	0	0	---	0.00	30.168 
21:10	27.0	27.0	27.0	77	20.8	0	0	---	0.00	30.171 
21:15	26.9	26.9	26.9	77	20.7	0	0	---	0.00	30.174 
21:20	26.9	26.9	26.9	77	20.7	0	0	---	0.00	30.173 
21:25	26.7	26.7	26.7	78	20.8	0	0	---	0.00	30.174 
21:30	26.7	26.7	26.7	78	20.8	0	0	---	0.00	30.175 
21:35	26.6	26.6	26.6	78	20.7	0	0	---	0.00	30.175 
21:40	26.4	26.4	26.4	78	20.5	0	0	---	0.00	30.175 
21:45	26.3	26.3	26.3	79	20.7	0	0	---	0.00	30.175 
21:50	26.1	26.1	26.1	79	20.5	0	0	---	0.00	30.176 
21:55	26.0	26.0	26.0	80	20.7	0	0	---	0.00	30.180 
22:00	25.8	25.8	25.8	80	20.5	0	0	---	0.00	30.182 
22:05	25.7	25.7	25.7	80	20.4	0	0	---	0.00	30.180 
22:10	25.6	25.6	25.6	81	20.6	0	0	---	0.00	30.179 
22:15	25.6	25.6	25.6	81	20.6	0	0	---	0.00	30.177 
22:20	25.6	25.6	25.6	80	20.3	0	0	---	0.00	30.183 
22:25	25.6	25.6	25.6	80	20.3	0	0	---	0.00	30.180 
22:30	25.6	25.6	25.6	80	20.3	0	0	---	0.00	30.184 
22:35	25.6	25.6	25.6	80	20.3	0	0	---	0.00	30.189 
22:40	25.6	25.6	25.6	80	20.3	0	0	---	0.00	30.191 
22:45	25.4	25.4	25.4	80	20.1	0	0	---	0.00	30.190 
22:50	25.3	25.3	25.3	80	20.0	0	0	---	0.00	30.191 
22:55	25.1	25.1	25.1	80	19.8	0	0	---	0.00	30.191 
23:00	25.0	25.0	25.0	81	20.0	0	0	---	0.00	30.192 
23:05	25.0	25.0	25.0	81	20.0	0	0	---	0.00	30.194 
23:10	24.8	24.8	24.8	81	19.8	0	0	---	0.00	30.195 
23:15	24.7	24.7	24.7	82	20.0	0	0	---	0.00	30.197 
23:20	24.7	24.7	24.7	82	20.0	0	0	---	0.00	30.202 
23:25	24.5	24.5	24.5	82	19.8	0	0	---	0.00	30.203 
23:30	24.5	24.5	24.5	83	20.1	0	0	---	0.00	30.203 
23:35	24.5	24.5	24.5	83	20.1	0	0	---	0.00	30.204 
23:40	24.5	24.5	24.5	83	20.1	0	0	---	0.00	30.205 
23:45	24.5	24.5	24.5	84	20.4	0	0	---	0.00	30.205 
23:50	24.7	24.7	24.7	84	20.6	0	0	---	0.00	30.205 
23:55	24.7	24.7	24.7	84	20.6	0	0	---	0.00	30.207 

CoCoRaHS
IN-AL-39
A2 Web Hosting
Creative Commons License
GoDaddy
Look for:

loaded 2017-10-18 22:04:20 • last modified 2010-11-18 10:43:29
Privacy PolicyDisclaimer
• wx.awcolley.com is powered by PmWiki v.2002016 •
• all content (unless otherwise noted) © 2017 A W Colley